Time;durP1;ratioP1;P1;durP2;ratioP2;P2;SDS_P1;SDS_P2;PMS_P1;PMS_P2;Temp;Humidity;BMP_temperature;BMP_pressure;BME280_temperature;BME280_humidity;BME280_pressure;Samples;Min_cycle;Max_cycle;Signal;HPM_P1;HPM_P2
2023/09/05 00:01:49;;;;;;;2.83;2.40;;;19.30;99.90;;;;;;5091072;28;20557;-72
2023/09/05 00:04:15;;;;;;;3.03;2.63;;;19.30;99.90;;;;;;5091128;28;20413;-72
2023/09/05 00:06:41;;;;;;;2.90;2.43;;;19.40;99.90;;;;;;5089614;28;20610;-72
2023/09/05 00:09:07;;;;;;;4.53;2.50;;;19.40;99.90;;;;;;5090902;28;20209;-71
2023/09/05 00:11:33;;;;;;;6.00;2.40;;;19.40;99.90;;;;;;5090889;28;20507;-72
2023/09/05 00:14:00;;;;;;;3.07;2.60;;;19.30;99.90;;;;;;5089664;28;20170;-72
2023/09/05 00:16:26;;;;;;;3.57;2.73;;;19.30;99.90;;;;;;5090740;28;20459;-72
2023/09/05 00:18:52;;;;;;;3.60;2.37;;;19.30;99.90;;;;;;5090920;28;20428;-72
2023/09/05 00:21:18;;;;;;;4.03;2.77;;;19.30;99.90;;;;;;5090958;28;20844;-72
2023/09/05 00:23:45;;;;;;;3.80;2.77;;;19.30;99.90;;;;;;5090858;28;20424;-72
2023/09/05 00:26:11;;;;;;;8.50;2.33;;;19.30;99.90;;;;;;5090663;28;20544;-71
2023/09/05 00:28:36;;;;;;;4.53;3.10;;;19.30;99.90;;;;;;5090602;28;20566;-71
2023/09/05 00:31:02;;;;;;;5.30;2.50;;;19.30;99.90;;;;;;5090546;28;20183;-72
2023/09/05 00:33:31;;;;;;;5.63;2.77;;;19.30;99.90;;;;;;5090747;28;20190;-71
2023/09/05 00:35:57;;;;;;;5.13;2.13;;;19.30;99.90;;;;;;5090292;28;20205;-72
2023/09/05 00:38:22;;;;;;;2.97;2.30;;;19.30;99.90;;;;;;5090409;28;20420;-72
2023/09/05 00:40:51;;;;;;;2.50;2.30;;;19.30;99.90;;;;;;5088809;28;20462;-72
2023/09/05 00:43:20;;;;;;;5.83;2.63;;;19.20;99.90;;;;;;5090382;28;20189;-72
2023/09/05 00:45:52;;;;;;;3.17;2.50;;;19.20;99.90;;;;;;5090346;28;20447;-71
2023/09/05 00:48:23;;;;;;;9.20;2.80;;;19.20;99.90;;;;;;5090234;28;20496;-72
2023/09/05 00:50:51;;;;;;;8.47;2.60;;;19.20;99.90;;;;;;5090149;28;20423;-72
2023/09/05 00:53:17;;;;;;;2.90;2.07;;;19.20;99.90;;;;;;5089979;28;20409;-72
2023/09/05 00:55:43;;;;;;;4.57;2.60;;;19.10;99.90;;;;;;5089927;28;20463;-71
2023/09/05 00:58:10;;;;;;;4.43;2.50;;;19.20;99.90;;;;;;5090259;28;20257;-71
2023/09/05 01:00:36;;;;;;;2.93;2.50;;;19.20;99.90;;;;;;5090050;28;20278;-71
2023/09/05 01:03:02;;;;;;;5.37;2.33;;;19.20;99.90;;;;;;5088651;28;20463;-71
2023/09/05 01:05:30;;;;;;;4.03;2.60;;;19.10;99.90;;;;;;5088717;28;20205;-75
2023/09/05 01:08:24;;;;;;;4.63;3.10;;;19.20;99.90;;;;;;5089577;28;20219;-72
2023/09/05 01:10:52;;;;;;;3.37;2.53;;;19.10;99.90;;;;;;5089797;28;20400;-71
2023/09/05 01:13:23;;;;;;;3.83;2.40;;;19.10;99.90;;;;;;5089752;28;20449;-71
2023/09/05 01:15:48;;;;;;;3.77;2.00;;;19.20;99.90;;;;;;5087959;28;20864;-71
2023/09/05 01:18:14;;;;;;;4.40;2.43;;;19.20;99.90;;;;;;5089765;28;20741;-70
2023/09/05 01:21:08;;;;;;;2.77;1.90;;;19.10;99.90;;;;;;5089776;28;20182;-72
2023/09/05 01:23:45;;;;;;;4.00;3.00;;;19.10;99.90;;;;;;5089751;28;20170;-72
2023/09/05 01:26:11;;;;;;;3.57;2.63;;;19.20;99.90;;;;;;5089566;28;20424;-71
2023/09/05 01:28:41;;;;;;;3.70;2.10;;;19.20;99.90;;;;;;5071052;28;20460;-71
2023/09/05 01:31:09;;;;;;;2.83;2.20;;;19.10;99.90;;;;;;5089553;28;20444;-71
2023/09/05 01:33:39;;;;;;;3.70;2.60;;;19.20;99.90;;;;;;5089380;28;20413;-71
2023/09/05 01:36:06;;;;;;;2.27;2.07;;;19.10;99.90;;;;;;5089278;28;20432;-71
2023/09/05 01:38:32;;;;;;;2.33;2.00;;;19.20;99.90;;;;;;5089223;28;20420;-71
2023/09/05 01:40:58;;;;;;;3.43;2.50;;;19.20;99.90;;;;;;5089390;28;20462;-71
2023/09/05 01:43:24;;;;;;;3.30;2.60;;;19.10;99.90;;;;;;5089180;28;20456;-71
2023/09/05 01:45:49;;;;;;;2.90;2.30;;;19.10;99.90;;;;;;5089015;28;20227;-71
2023/09/05 01:48:15;;;;;;;4.07;2.83;;;19.20;99.90;;;;;;5087658;28;20238;-71
2023/09/05 01:50:40;;;;;;;3.17;2.40;;;19.10;99.90;;;;;;5089030;28;20177;-71
2023/09/05 01:53:06;;;;;;;3.03;2.03;;;19.10;99.90;;;;;;5089088;28;20931;-71
2023/09/05 01:55:31;;;;;;;2.47;2.27;;;19.10;99.90;;;;;;5088614;28;20210;-71
2023/09/05 01:57:57;;;;;;;4.77;1.97;;;19.20;99.90;;;;;;5087446;28;20185;-71
2023/09/05 02:00:23;;;;;;;3.30;2.13;;;19.20;99.90;;;;;;5087319;28;20598;-71
2023/09/05 02:02:48;;;;;;;2.87;2.57;;;19.20;99.90;;;;;;5088968;28;20214;-71
2023/09/05 02:05:14;;;;;;;2.40;2.20;;;19.20;99.90;;;;;;5088975;28;20211;-71
2023/09/05 02:07:39;;;;;;;4.50;2.77;;;19.10;99.90;;;;;;5087591;28;22612;-71
2023/09/05 02:10:06;;;;;;;5.73;2.93;;;19.10;99.90;;;;;;5088953;28;20217;-71
2023/09/05 02:12:32;;;;;;;3.40;2.70;;;19.10;99.90;;;;;;5088913;28;20178;-71
2023/09/05 02:15:00;;;;;;;5.40;2.90;;;19.10;99.90;;;;;;5088917;28;20447;-71
2023/09/05 02:17:30;;;;;;;3.57;2.40;;;19.10;99.90;;;;;;5087302;28;20435;-71
2023/09/05 02:19:56;;;;;;;4.23;2.93;;;19.10;99.90;;;;;;5088146;28;20443;-71
2023/09/05 02:22:22;;;;;;;4.77;2.50;;;19.00;99.90;;;;;;5089038;28;20451;-71
2023/09/05 02:24:47;;;;;;;2.53;2.33;;;19.00;99.90;;;;;;5088743;28;20871;-71
2023/09/05 02:27:13;;;;;;;3.10;2.40;;;19.00;99.90;;;;;;5088785;28;20189;-71
2023/09/05 02:29:38;;;;;;;4.90;2.57;;;19.00;99.90;;;;;;5088670;28;20222;-71
2023/09/05 02:32:04;;;;;;;2.80;2.30;;;19.00;99.90;;;;;;5088578;28;20216;-71
2023/09/05 02:34:30;;;;;;;3.80;2.60;;;19.00;99.90;;;;;;5087113;28;20193;-72
2023/09/05 02:36:58;;;;;;;2.67;2.47;;;19.00;99.90;;;;;;5088571;28;21080;-72
2023/09/05 02:39:24;;;;;;;5.20;2.63;;;19.00;99.90;;;;;;5070803;28;20194;-71
2023/09/05 02:41:49;;;;;;;6.57;2.40;;;18.90;99.90;;;;;;5088682;28;20424;-72
2023/09/05 02:44:15;;;;;;;5.93;2.63;;;18.90;99.90;;;;;;5087177;28;20227;-72
2023/09/05 02:46:41;;;;;;;2.97;2.50;;;19.00;99.90;;;;;;5088391;28;20286;-72
2023/09/05 02:49:06;;;;;;;3.80;2.40;;;19.00;99.90;;;;;;5088319;28;20584;-72
2023/09/05 02:51:32;;;;;;;5.53;2.60;;;18.90;99.90;;;;;;5088456;28;20179;-72
2023/09/05 02:54:00;;;;;;;4.17;2.40;;;18.90;99.90;;;;;;5088453;28;20189;-71
2023/09/05 02:56:25;;;;;;;2.97;2.40;;;18.90;99.90;;;;;;5088360;28;20202;-71
2023/09/05 02:58:51;;;;;;;2.87;2.57;;;18.90;99.90;;;;;;5088388;28;20453;-71
2023/09/05 03:01:17;;;;;;;5.30;2.80;;;18.90;99.90;;;;;;5088274;28;20189;-71
2023/09/05 03:03:43;;;;;;;4.60;2.93;;;18.90;99.90;;;;;;5088193;28;20186;-71
2023/09/05 03:06:15;;;;;;;4.10;2.50;;;18.90;99.90;;;;;;5088266;28;20209;-70
2023/09/05 03:08:45;;;;;;;3.67;2.67;;;18.90;99.90;;;;;;5088307;28;20473;-70
2023/09/05 03:11:13;;;;;;;2.47;2.27;;;18.90;99.90;;;;;;5086724;28;20424;-70
2023/09/05 03:13:39;;;;;;;6.10;2.50;;;18.90;99.90;;;;;;5088086;28;20439;-70
2023/09/05 03:16:05;;;;;;;2.77;2.17;;;18.90;99.90;;;;;;5086858;28;20920;-71
2023/09/05 03:18:30;;;;;;;2.73;2.00;;;18.80;99.90;;;;;;5088226;28;20188;-71
2023/09/05 03:20:56;;;;;;;7.33;2.77;;;18.70;99.90;;;;;;5088169;28;20187;-72
2023/09/05 03:23:22;;;;;;;3.53;2.83;;;18.80;99.90;;;;;;5088124;28;20184;-72
2023/09/05 03:25:48;;;;;;;4.73;2.53;;;18.70;99.90;;;;;;5087989;28;20320;-72
2023/09/05 03:28:13;;;;;;;5.63;2.50;;;18.60;99.90;;;;;;5086816;28;20547;-72
2023/09/05 03:30:43;;;;;;;3.00;2.10;;;18.50;97.60;;;;;;5088931;28;20674;-72
2023/09/05 03:33:09;;;;;;;3.27;2.30;;;18.50;98.20;;;;;;5091788;28;20926;-71
2023/09/05 03:35:35;;;;;;;6.17;2.30;;;18.50;99.50;;;;;;5090375;28;20455;-70
2023/09/05 03:38:02;;;;;;;4.37;2.40;;;18.50;98.30;;;;;;5089799;28;20432;-70
2023/09/05 03:40:29;;;;;;;2.30;1.90;;;18.40;99.30;;;;;;5088958;28;20534;-70
2023/09/05 03:42:54;;;;;;;4.57;2.53;;;18.40;99.90;;;;;;5090172;28;21087;-70
2023/09/05 03:45:21;;;;;;;2.90;2.50;;;18.40;99.90;;;;;;5090136;28;20557;-70
2023/09/05 03:47:46;;;;;;;3.10;2.33;;;18.30;99.90;;;;;;5090072;28;20481;-71
2023/09/05 03:50:13;;;;;;;3.43;2.50;;;18.10;99.90;;;;;;5088415;28;20427;-71
2023/09/05 03:52:39;;;;;;;3.13;2.67;;;18.00;99.90;;;;;;5089923;28;20280;-71
2023/09/05 03:55:05;;;;;;;4.70;2.43;;;17.90;99.90;;;;;;5089601;28;20648;-72
2023/09/05 03:57:31;;;;;;;4.47;2.40;;;17.90;99.90;;;;;;5088208;28;20202;-70
2023/09/05 03:59:57;;;;;;;3.70;2.47;;;17.90;99.90;;;;;;5089846;28;20790;-70
2023/09/05 04:02:22;;;;;;;2.03;1.83;;;17.90;99.90;;;;;;5089804;28;20190;-70
2023/09/05 04:04:48;;;;;;;4.13;2.37;;;17.70;99.90;;;;;;5090015;28;20183;-71
2023/09/05 04:07:13;;;;;;;2.20;1.77;;;17.70;99.90;;;;;;5088074;28;20266;-70
2023/09/05 04:09:39;;;;;;;3.90;2.30;;;17.70;99.90;;;;;;5089656;28;20223;-71
2023/09/05 04:12:05;;;;;;;5.20;2.43;;;17.70;99.90;;;;;;5088346;28;20188;-70
2023/09/05 04:14:30;;;;;;;4.50;2.40;;;17.60;99.90;;;;;;5089870;28;20604;-71
2023/09/05 04:16:56;;;;;;;2.90;2.27;;;17.50;99.90;;;;;;5089726;28;20477;-70
2023/09/05 04:19:22;;;;;;;4.90;2.73;;;17.40;99.90;;;;;;5088278;28;20224;-70
2023/09/05 04:21:47;;;;;;;2.30;2.10;;;17.40;99.90;;;;;;5090029;28;20182;-70
2023/09/05 04:24:13;;;;;;;2.93;2.60;;;17.50;99.90;;;;;;5089731;28;20187;-70
2023/09/05 04:26:39;;;;;;;4.23;3.20;;;17.40;99.90;;;;;;5089555;28;20235;-71
2023/09/05 04:29:05;;;;;;;3.83;2.50;;;17.30;99.90;;;;;;5087659;28;20521;-70
2023/09/05 04:31:30;;;;;;;2.87;2.43;;;17.10;99.90;;;;;;5089377;28;20186;-70
2023/09/05 04:33:56;;;;;;;4.63;2.50;;;17.00;99.90;;;;;;5087450;28;20459;-70
2023/09/05 04:36:22;;;;;;;2.83;2.60;;;17.10;99.90;;;;;;5088899;28;20263;-70
2023/09/05 04:38:50;;;;;;;2.93;2.13;;;17.10;99.90;;;;;;5089046;28;20190;-70
2023/09/05 04:41:16;;;;;;;2.13;1.93;;;17.40;99.90;;;;;;5088623;28;20531;-70
2023/09/05 04:43:41;;;;;;;2.40;2.10;;;17.60;99.90;;;;;;5089121;28;20425;-69
2023/09/05 04:46:09;;;;;;;6.00;1.80;;;17.60;99.90;;;;;;5088807;28;20444;-70
2023/09/05 04:48:35;;;;;;;5.10;2.07;;;17.60;99.90;;;;;;5089055;28;20211;-70
2023/09/05 04:51:04;;;;;;;2.37;2.10;;;17.70;99.90;;;;;;5089047;28;21068;-71
2023/09/05 04:53:30;;;;;;;3.20;2.23;;;17.80;99.90;;;;;;5089100;28;20207;-72
2023/09/05 04:55:59;;;;;;;2.33;2.07;;;17.80;99.90;;;;;;5088816;28;21298;-72
2023/09/05 04:58:32;;;;;;;5.07;2.87;;;17.90;99.90;;;;;;5088769;28;20424;-71
2023/09/05 05:01:02;;;;;;;6.63;3.10;;;17.90;99.90;;;;;;5088686;28;20954;-72
2023/09/05 05:03:32;;;;;;;3.20;2.13;;;17.90;99.90;;;;;;5088852;28;20506;-71
2023/09/05 05:05:58;;;;;;;5.80;2.10;;;17.90;99.90;;;;;;5087438;28;20533;-73
2023/09/05 05:08:24;;;;;;;2.80;2.20;;;17.90;99.90;;;;;;5089064;28;20549;-73
2023/09/05 05:10:50;;;;;;;3.10;1.80;;;17.90;99.90;;;;;;5089237;28;20466;-72
2023/09/05 05:13:15;;;;;;;2.70;2.43;;;17.90;99.90;;;;;;5087466;28;20950;-72
2023/09/05 05:15:45;;;;;;;2.50;2.20;;;17.90;99.90;;;;;;5088707;28;20194;-72
2023/09/05 05:18:10;;;;;;;4.00;2.30;;;17.90;99.90;;;;;;5088465;28;20185;-73
2023/09/05 05:20:37;;;;;;;23.73;3.10;;;17.80;99.90;;;;;;5088599;28;20459;-72
2023/09/05 05:23:04;;;;;;;2.00;1.80;;;17.80;99.90;;;;;;5088509;28;20187;-72
2023/09/05 05:25:29;;;;;;;3.10;2.40;;;17.90;99.90;;;;;;5086952;28;20837;-71
2023/09/05 05:27:55;;;;;;;3.40;3.10;;;17.90;99.90;;;;;;5088556;28;20576;-73
2023/09/05 05:30:21;;;;;;;4.33;2.40;;;17.90;99.90;;;;;;5088541;28;20534;-71
2023/09/05 05:32:47;;;;;;;3.87;2.40;;;17.90;99.90;;;;;;5088687;28;20720;-71
2023/09/05 05:35:13;;;;;;;2.80;2.27;;;17.90;99.90;;;;;;5088794;28;20220;-73
2023/09/05 05:37:38;;;;;;;5.60;2.30;;;18.00;99.90;;;;;;5088439;28;20963;-72
2023/09/05 05:40:05;;;;;;;3.30;2.30;;;18.00;99.90;;;;;;5088512;28;20178;-72
2023/09/05 05:42:30;;;;;;;4.60;2.50;;;18.10;99.90;;;;;;5088393;28;20372;-72
2023/09/05 05:44:56;;;;;;;2.70;2.13;;;18.20;99.90;;;;;;5086851;28;20491;-72
2023/09/05 05:47:22;;;;;;;2.60;2.00;;;18.20;99.90;;;;;;5086710;28;20669;-72
2023/09/05 05:49:48;;;;;;;4.20;2.30;;;18.30;99.90;;;;;;5088301;28;20268;-71
2023/09/05 05:52:13;;;;;;;5.80;2.30;;;18.40;99.90;;;;;;5088095;28;21120;-72
2023/09/05 05:54:39;;;;;;;2.20;1.90;;;18.50;99.90;;;;;;5086599;28;20614;-72
2023/09/05 05:57:05;;;;;;;3.20;2.23;;;18.70;99.90;;;;;;5086221;28;20236;-72
2023/09/05 05:59:30;;;;;;;2.90;2.23;;;18.70;99.90;;;;;;5087271;28;20664;-72
2023/09/05 06:01:56;;;;;;;2.50;1.93;;;18.70;99.90;;;;;;5086257;28;20182;-71
2023/09/05 06:04:23;;;;;;;4.33;2.23;;;18.70;99.90;;;;;;5087642;28;20267;-71
2023/09/05 06:06:49;;;;;;;2.27;2.00;;;18.80;99.90;;;;;;5087360;28;20487;-72
2023/09/05 06:09:19;;;;;;;2.90;2.07;;;18.80;99.90;;;;;;5085905;28;20493;-71
2023/09/05 06:11:45;;;;;;;7.20;2.30;;;18.90;99.90;;;;;;5087410;28;20239;-72
2023/09/05 06:14:13;;;;;;;2.63;1.90;;;19.00;99.90;;;;;;5087297;28;20417;-71
2023/09/05 06:16:39;;;;;;;5.10;1.80;;;19.10;99.90;;;;;;5086403;28;20443;-73
2023/09/05 06:19:05;;;;;;;2.70;2.07;;;19.20;99.90;;;;;;5087228;28;20424;-72
2023/09/05 06:21:30;;;;;;;2.00;1.70;;;19.40;99.90;;;;;;5085760;28;20190;-73
2023/09/05 06:23:56;;;;;;;3.60;2.20;;;19.50;99.90;;;;;;5086256;28;20190;-72
2023/09/05 06:26:21;;;;;;;3.00;2.37;;;19.80;99.90;;;;;;5087326;28;20219;-71
2023/09/05 06:28:48;;;;;;;5.70;2.60;;;19.80;99.90;;;;;;5087153;28;20660;-71
2023/09/05 06:31:14;;;;;;;2.93;2.10;;;20.10;99.90;;;;;;5085821;28;20314;-73
2023/09/05 06:33:39;;;;;;;3.53;2.10;;;20.30;99.90;;;;;;5088109;28;20435;-72
2023/09/05 06:36:06;;;;;;;4.00;2.00;;;20.20;99.90;;;;;;5087445;28;20477;-72
2023/09/05 06:38:31;;;;;;;2.10;1.90;;;20.70;99.90;;;;;;5087237;28;20194;-70
2023/09/05 06:41:04;;;;;;;2.50;2.10;;;20.60;99.90;;;;;;5087503;28;20731;-72
2023/09/05 06:43:29;;;;;;;4.10;2.40;;;20.50;99.90;;;;;;5087344;28;20194;-72
2023/09/05 06:46:06;;;;;;;2.70;2.13;;;20.50;99.90;;;;;;5085552;28;21011;-73
2023/09/05 06:48:33;;;;;;;3.43;2.03;;;20.40;99.90;;;;;;5085872;28;20700;-72
2023/09/05 06:50:58;;;;;;;2.27;2.07;;;20.30;99.90;;;;;;5087646;28;20803;-72
2023/09/05 06:53:25;;;;;;;4.40;2.20;;;20.30;99.90;;;;;;5087309;28;20429;-72
2023/09/05 06:55:51;;;;;;;2.00;1.80;;;20.30;99.90;;;;;;5068712;28;20309;-72
2023/09/05 06:58:18;;;;;;;7.23;2.10;;;20.20;99.90;;;;;;5086146;28;20945;-72
2023/09/05 07:00:43;;;;;;;2.20;2.00;;;20.10;99.90;;;;;;5087416;28;20420;-71
2023/09/05 07:03:10;;;;;;;2.20;1.90;;;20.10;99.90;;;;;;5085805;28;20720;-72
2023/09/05 07:05:41;;;;;;;2.30;2.00;;;20.10;99.90;;;;;;5089461;28;20303;-72
2023/09/05 07:08:07;;;;;;;2.60;2.40;;;20.10;99.90;;;;;;5091358;28;20471;-71
2023/09/05 07:10:33;;;;;;;2.13;1.93;;;20.10;99.90;;;;;;5091050;28;20927;-71
2023/09/05 07:12:58;;;;;;;2.17;1.97;;;20.10;99.90;;;;;;5090973;28;20186;-71
2023/09/05 07:15:24;;;;;;;2.70;2.10;;;20.30;99.90;;;;;;5090723;28;20234;-71
2023/09/05 07:17:51;;;;;;;3.20;2.30;;;20.40;99.90;;;;;;5090983;28;20812;-72
2023/09/05 07:20:16;;;;;;;1.93;1.83;;;20.50;99.90;;;;;;5091119;28;20179;-71
2023/09/05 07:22:43;;;;;;;2.30;2.10;;;20.40;99.90;;;;;;5090945;28;20424;-72
2023/09/05 07:25:08;;;;;;;3.23;2.10;;;20.50;99.90;;;;;;5090922;28;20705;-73
2023/09/05 07:27:34;;;;;;;3.20;2.40;;;20.50;99.90;;;;;;5091094;28;20744;-72
2023/09/05 07:30:00;;;;;;;4.90;2.40;;;20.60;99.90;;;;;;5090470;28;20796;-73
2023/09/05 07:32:25;;;;;;;5.73;2.23;;;20.50;99.90;;;;;;5090339;28;20195;-72
2023/09/05 07:34:51;;;;;;;2.53;1.57;;;20.50;99.90;;;;;;5089436;28;20414;-72
2023/09/05 07:37:17;;;;;;;2.03;1.80;;;20.60;99.90;;;;;;5090333;28;20182;-72
2023/09/05 07:39:49;;;;;;;4.57;2.40;;;20.60;99.90;;;;;;5088602;28;20197;-72
2023/09/05 07:42:15;;;;;;;2.70;2.30;;;20.60;99.90;;;;;;5072477;28;20191;-73
2023/09/05 07:44:41;;;;;;;2.27;1.90;;;20.70;99.90;;;;;;5090208;28;20833;-72
2023/09/05 07:47:06;;;;;;;5.80;2.70;;;20.70;99.90;;;;;;5089892;28;20269;-72
2023/09/05 07:49:42;;;;;;;2.20;2.00;;;20.70;99.90;;;;;;5071450;28;20223;-72
2023/09/05 07:52:08;;;;;;;1.73;1.63;;;20.70;99.90;;;;;;5089945;28;20178;-72
2023/09/05 07:54:35;;;;;;;4.47;2.10;;;20.80;99.90;;;;;;5089790;28;21088;-72
2023/09/05 07:57:02;;;;;;;3.03;1.93;;;20.80;99.90;;;;;;5089667;28;20199;-72
2023/09/05 07:59:28;;;;;;;3.37;2.10;;;20.90;99.90;;;;;;5089945;28;20452;-72
2023/09/05 08:01:55;;;;;;;3.20;2.13;;;20.90;99.90;;;;;;5071166;28;20467;-69
2023/09/05 08:04:21;;;;;;;2.40;2.13;;;21.10;99.90;;;;;;5088017;28;20251;-69
2023/09/05 08:06:48;;;;;;;2.80;2.20;;;21.10;99.90;;;;;;5089425;28;20436;-68
2023/09/05 08:09:13;;;;;;;4.67;1.87;;;21.20;99.90;;;;;;5089487;28;20471;-68
2023/09/05 08:11:39;;;;;;;2.23;2.03;;;21.30;99.90;;;;;;5089232;28;20422;-68
2023/09/05 08:14:05;;;;;;;3.00;1.80;;;21.40;99.90;;;;;;5087720;28;20189;-68
2023/09/05 08:16:30;;;;;;;4.10;1.90;;;21.40;99.90;;;;;;5088161;28;20207;-68
2023/09/05 08:18:56;;;;;;;2.60;1.60;;;21.50;99.90;;;;;;5089197;28;20231;-68
2023/09/05 08:21:22;;;;;;;4.03;1.90;;;21.50;99.90;;;;;;5089121;28;20199;-68
2023/09/05 08:23:51;;;;;;;3.20;1.97;;;21.70;99.90;;;;;;5088960;28;20673;-67
2023/09/05 08:26:16;;;;;;;2.23;2.00;;;21.80;99.90;;;;;;5087277;28;20301;-68
2023/09/05 08:28:44;;;;;;;3.40;2.00;;;21.80;99.90;;;;;;5087206;28;20482;-68
2023/09/05 08:31:13;;;;;;;3.83;1.93;;;21.90;99.90;;;;;;5088905;28;20428;-68
2023/09/05 08:33:39;;;;;;;2.00;1.80;;;22.00;99.90;;;;;;5088946;28;20416;-68
2023/09/05 08:36:05;;;;;;;2.20;1.90;;;22.00;99.90;;;;;;5088515;28;21330;-68
2023/09/05 08:38:31;;;;;;;2.03;1.60;;;22.20;99.90;;;;;;5088817;28;20191;-68
2023/09/05 08:41:01;;;;;;;2.67;2.10;;;22.30;99.90;;;;;;5088715;28;20425;-68
2023/09/05 08:43:27;;;;;;;2.03;1.83;;;22.40;99.90;;;;;;5088691;28;20550;-68
2023/09/05 08:45:54;;;;;;;2.63;1.80;;;22.50;99.90;;;;;;5088532;28;20448;-68
2023/09/05 08:48:20;;;;;;;4.70;1.80;;;22.60;99.90;;;;;;5088564;28;20526;-68
2023/09/05 08:50:45;;;;;;;2.10;1.50;;;22.90;99.90;;;;;;5088547;28;20427;-68
2023/09/05 08:53:15;;;;;;;1.60;1.50;;;23.10;99.90;;;;;;5088478;28;20187;-67
2023/09/05 08:55:45;;;;;;;5.47;1.60;;;23.20;99.90;;;;;;5088246;28;20237;-67
2023/09/05 08:58:13;;;;;;;1.73;1.53;;;23.40;99.90;;;;;;5088446;28;20509;-68
2023/09/05 09:00:39;;;;;;;2.30;1.97;;;23.60;99.90;;;;;;5088613;28;20546;-68
2023/09/05 09:03:07;;;;;;;1.80;1.57;;;23.90;99.90;;;;;;5088171;28;21230;-67
2023/09/05 09:05:35;;;;;;;2.00;1.40;;;23.90;99.90;;;;;;5086571;28;20632;-68
2023/09/05 09:08:03;;;;;;;1.90;1.53;;;24.10;99.90;;;;;;5086522;28;20522;-68
2023/09/05 09:10:29;;;;;;;2.67;1.63;;;24.30;99.90;;;;;;5088180;28;20772;-68
2023/09/05 09:13:12;;;;;;;2.77;1.80;;;24.60;99.90;;;;;;5088039;28;20421;-66
2023/09/05 09:15:41;;;;;;;3.20;1.60;;;24.80;99.90;;;;;;5086777;28;20222;-66
2023/09/05 09:18:11;;;;;;;2.00;1.80;;;25.20;99.90;;;;;;5086272;28;20442;-67
2023/09/05 09:20:42;;;;;;;3.53;1.60;;;25.40;99.90;;;;;;5088012;28;20539;-67
2023/09/05 09:23:09;;;;;;;2.20;2.00;;;25.80;99.90;;;;;;5087938;28;20970;-66
2023/09/05 09:25:34;;;;;;;2.67;1.43;;;26.00;98.50;;;;;;5086355;28;20437;-66
2023/09/05 09:28:00;;;;;;;2.50;1.90;;;26.30;98.90;;;;;;5087446;28;20460;-67
2023/09/05 09:30:29;;;;;;;3.27;1.40;;;26.60;99.90;;;;;;5088266;28;20210;-66
2023/09/05 09:32:55;;;;;;;2.93;1.67;;;27.00;98.60;;;;;;5087717;28;20185;-67
2023/09/05 09:35:21;;;;;;;1.53;1.20;;;27.30;97.10;;;;;;5087744;28;20436;-67
2023/09/05 09:37:48;;;;;;;2.60;1.43;;;27.30;96.60;;;;;;5087678;28;20224;-66
2023/09/05 09:40:18;;;;;;;2.33;1.40;;;27.90;95.20;;;;;;5087639;28;20911;-68
2023/09/05 09:42:48;;;;;;;2.50;1.80;;;28.10;95.50;;;;;;5087635;28;20417;-68
2023/09/05 09:45:15;;;;;;;3.87;1.87;;;28.40;94.90;;;;;;5085900;28;20856;-67
2023/09/05 09:47:47;;;;;;;4.23;1.87;;;28.50;94.90;;;;;;5087457;28;20886;-67
2023/09/05 09:50:13;;;;;;;3.47;2.03;;;28.70;94.80;;;;;;5085759;28;20792;-67
2023/09/05 09:52:43;;;;;;;1.90;1.70;;;28.90;94.60;;;;;;5068847;28;20447;-66
2023/09/05 09:55:11;;;;;;;1.70;1.53;;;29.00;94.90;;;;;;5087188;28;20830;-68
2023/09/05 09:57:44;;;;;;;2.10;1.90;;;29.50;94.80;;;;;;5087413;28;20900;-67
2023/09/05 10:00:15;;;;;;;1.60;1.50;;;29.50;94.40;;;;;;5087403;28;20835;-67
2023/09/05 10:02:45;;;;;;;4.03;1.70;;;29.70;93.70;;;;;;5087559;28;20505;-67
2023/09/05 10:05:11;;;;;;;2.30;2.07;;;30.10;94.30;;;;;;5087278;28;20963;-67
2023/09/05 10:07:41;;;;;;;1.60;1.50;;;30.00;93.50;;;;;;5087249;28;20428;-67
2023/09/05 10:10:09;;;;;;;2.07;1.47;;;30.30;95.30;;;;;;5087618;28;20534;-67
2023/09/05 10:12:36;;;;;;;1.67;1.57;;;30.40;95.10;;;;;;5087271;28;20427;-66
2023/09/05 10:15:03;;;;;;;2.07;1.30;;;30.70;94.70;;;;;;5087007;28;20425;-69
2023/09/05 10:17:31;;;;;;;1.90;1.80;;;30.80;93.10;;;;;;5087012;28;20420;-67
2023/09/05 10:19:57;;;;;;;2.63;1.20;;;31.00;94.00;;;;;;5087285;28;20411;-67
2023/09/05 10:22:24;;;;;;;1.70;1.30;;;31.00;94.10;;;;;;5087044;28;20475;-68
2023/09/05 10:24:51;;;;;;;2.07;1.40;;;31.10;93.70;;;;;;5086916;28;20417;-67
2023/09/05 10:27:16;;;;;;;3.53;1.60;;;30.80;94.40;;;;;;5087007;28;20408;-68
2023/09/05 10:29:44;;;;;;;2.10;1.30;;;30.80;92.80;;;;;;5086851;28;20843;-67
2023/09/05 10:32:14;;;;;;;2.37;1.40;;;30.80;94.30;;;;;;5087196;28;20409;-68
2023/09/05 10:34:54;;;;;;;1.30;1.20;;;30.60;94.60;;;;;;5086951;28;20476;-67
2023/09/05 10:37:22;;;;;;;2.10;1.53;;;30.10;96.10;;;;;;5087037;28;20519;-67
2023/09/05 10:39:54;;;;;;;1.47;1.37;;;29.50;93.80;;;;;;5086634;28;20951;-66
2023/09/05 10:42:31;;;;;;;3.70;1.33;;;29.20;96.20;;;;;;5089880;28;20420;-66
2023/09/05 10:45:16;;;;;;;1.93;1.20;;;28.90;96.00;;;;;;5091269;28;20537;-66
2023/09/05 10:47:42;;;;;;;2.10;1.63;;;28.70;95.80;;;;;;5091273;28;20452;-67
2023/09/05 10:50:10;;;;;;;3.17;1.37;;;28.30;93.20;;;;;;5091296;28;20496;-67
2023/09/05 10:52:36;;;;;;;1.80;1.10;;;28.10;93.60;;;;;;5091336;28;20773;-67
2023/09/05 10:55:29;;;;;;;1.90;1.30;;;28.00;93.50;;;;;;5091232;28;20471;-67
2023/09/05 10:57:56;;;;;;;1.57;1.47;;;28.00;93.40;;;;;;5091366;28;20458;-67
2023/09/05 11:00:23;;;;;;;1.80;1.50;;;28.10;93.10;;;;;;5091321;28;20418;-67
2023/09/05 11:02:49;;;;;;;1.77;1.23;;;28.00;92.80;;;;;;5091095;28;20423;-67
2023/09/05 11:05:18;;;;;;;1.50;1.40;;;28.00;92.90;;;;;;5089604;28;20523;-67
2023/09/05 11:07:44;;;;;;;4.50;1.20;;;28.00;93.00;;;;;;5091064;28;20421;-67
2023/09/05 11:10:30;;;;;;;6.03;2.07;;;28.10;93.20;;;;;;5091023;28;20528;-67
2023/09/05 11:13:06;;;;;;;1.37;1.27;;;28.20;93.60;;;;;;5089069;28;20455;-67
2023/09/05 11:15:36;;;;;;;1.30;1.20;;;28.20;93.00;;;;;;5090386;28;20956;-68
2023/09/05 11:18:05;;;;;;;2.93;1.37;;;28.30;92.90;;;;;;5090959;28;20458;-67
2023/09/05 11:20:39;;;;;;;3.70;1.60;;;28.40;93.40;;;;;;5091034;28;20428;-67
2023/09/05 11:23:16;;;;;;;2.20;1.27;;;28.50;93.20;;;;;;5090662;28;20823;-66
2023/09/05 11:25:48;;;;;;;1.80;1.43;;;28.50;92.40;;;;;;5088999;28;20479;-67
2023/09/05 11:28:14;;;;;;;2.33;1.30;;;28.50;92.70;;;;;;5090417;28;20939;-67
2023/09/05 11:30:44;;;;;;;4.60;1.60;;;28.50;92.60;;;;;;5088796;28;20877;-67
2023/09/05 11:33:15;;;;;;;4.40;1.23;;;28.50;92.60;;;;;;5090635;28;20781;-67
2023/09/05 11:35:44;;;;;;;2.70;1.50;;;28.30;92.60;;;;;;5090160;28;20429;-67
2023/09/05 11:38:11;;;;;;;2.27;1.40;;;28.40;94.00;;;;;;5090075;28;20417;-66
2023/09/05 11:40:38;;;;;;;1.83;1.20;;;28.50;93.30;;;;;;5090318;28;20860;-66
2023/09/05 11:43:10;;;;;;;7.90;1.47;;;28.60;93.60;;;;;;5090390;28;20785;-66
2023/09/05 11:45:37;;;;;;;5.80;1.70;;;28.70;93.60;;;;;;5088508;28;20436;-66
2023/09/05 11:48:12;;;;;;;2.50;1.40;;;28.70;93.00;;;;;;5089850;28;20920;-66
2023/09/05 11:50:39;;;;;;;7.90;1.40;;;28.70;92.80;;;;;;5088703;28;20992;-65
2023/09/05 11:53:06;;;;;;;1.87;1.30;;;28.70;93.40;;;;;;5090569;28;20420;-66
2023/09/05 11:55:32;;;;;;;2.50;1.03;;;28.70;92.30;;;;;;5090299;28;20487;-66
2023/09/05 11:57:59;;;;;;;1.27;1.17;;;28.70;91.80;;;;;;5090505;28;20445;-67
2023/09/05 12:00:26;;;;;;;1.57;1.40;;;28.80;92.80;;;;;;5090358;28;20420;-67
2023/09/05 12:02:54;;;;;;;4.13;1.43;;;28.70;92.80;;;;;;5090442;28;20464;-66
2023/09/05 12:05:20;;;;;;;2.07;1.20;;;28.80;93.10;;;;;;5090052;28;20442;-66
2023/09/05 12:07:50;;;;;;;1.93;1.10;;;28.80;93.40;;;;;;5088529;28;20436;-66
2023/09/05 12:10:16;;;;;;;4.10;1.50;;;28.70;93.20;;;;;;5090200;28;20178;-66
2023/09/05 12:12:58;;;;;;;2.53;1.60;;;28.80;92.80;;;;;;5090311;28;20882;-67
2023/09/05 12:15:31;;;;;;;4.20;1.77;;;28.90;92.50;;;;;;5089797;28;20198;-66
2023/09/05 12:17:59;;;;;;;8.20;1.73;;;29.00;92.50;;;;;;5088125;28;20775;-66
2023/09/05 12:20:28;;;;;;;2.40;1.13;;;29.00;92.20;;;;;;5089979;28;20432;-65
2023/09/05 12:22:54;;;;;;;4.70;1.47;;;28.90;91.50;;;;;;5089602;28;20435;-67
2023/09/05 12:25:24;;;;;;;3.00;1.50;;;29.00;91.50;;;;;;5089459;28;20448;-65
2023/09/05 12:27:50;;;;;;;7.33;1.10;;;29.10;91.60;;;;;;5089530;28;20186;-65
2023/09/05 12:30:29;;;;;;;2.03;1.43;;;28.90;90.70;;;;;;5089439;28;20465;-66
2023/09/05 12:33:01;;;;;;;6.20;1.60;;;28.70;90.70;;;;;;5089597;28;20929;-66
2023/09/05 12:35:28;;;;;;;2.70;1.40;;;28.60;90.80;;;;;;5089834;28;20445;-66
2023/09/05 12:38:02;;;;;;;1.30;0.90;;;28.60;91.10;;;;;;5089784;28;20420;-67
2023/09/05 12:40:28;;;;;;;1.13;1.03;;;28.60;91.80;;;;;;5089672;28;20420;-67
2023/09/05 12:42:54;;;;;;;4.57;1.20;;;28.70;91.30;;;;;;5089500;28;20412;-66
2023/09/05 12:45:20;;;;;;;1.97;1.50;;;28.80;92.10;;;;;;5089549;28;20202;-66
2023/09/05 12:47:51;;;;;;;2.77;1.20;;;28.70;92.60;;;;;;5089592;28;20413;-66
2023/09/05 12:50:18;;;;;;;2.33;1.20;;;28.80;92.80;;;;;;5089522;28;20897;-66